Pagrindinis puslapis
METAR-TAF:

METAR-TAF

Oro uostai :

Kairas, Egiptas

platuma: 30-08N, ilguma: 031-24E, Aukštis: 64 m

Dabartinis oras

Ataskaita buvo paskelbta 33 minutes, ne 08:00 UTC
Vėjas 9 kt iš Šiaurės Vakarų
Temperatūra 19°C
Drėgmė 64%
Slėgis 1022 hPa
Matomumas: 6000 m
Išsisklaidę debesys ne aukštis 2500 ft
Su prošvaistėmis ne aukštis 7000 ft

METAR: HECA 060800Z 31009KT 6000 SCT025 BKN070 19/12 Q1022 NOSIG

Laikas: 10:33 (08:33 UTC)

Prognozė

Ataskaita buvo paskelbta 3 valandos ir 33 minutes, ne 05:00 UTC
Prognozė galioja nuo 06 metu 06 UTC su 07 metu 12 UTC
Vėjas 7 kt iš Šiaurės Vakarų
Matomumas: 6000 m
Išsisklaidę debesys ne aukštis 2500 ft
Laikinai
nuo 06 metu 07 UTC su 06 metu 09 UTC
Tapsmas
nuo 06 metu 09 UTC su 06 metu 11 UTC
Vėjas 12 kt iš Šiaurės Vakarų
Matomumas 10 km arba daugiau
Su prošvaistėmis ne aukštis 2500 ft

TAF: HECA 060500Z 0606/0712 31007KT 6000 SCT025 TEMPO 0607/0609 3000HZ BECMG 0609/0611 31012KT 9999 BKN025

Orai ataskaitas ir orų prognozės (METAR, TAF).

turimą stotys yra geltonos ir raudonos taškus žemėlapyje.

Perkelti pele per norėdami pamatyti stoties vardą.

Tada spustelėkite, norėdami matyti oro stebėjimo ir prognozės.

Norėdami pakeisti žemėlapį: spustelėkite ant žalios mygtukų su juodo kryžiaus žemyn,; žalią mygtuką su brūkšneliu, jei norite nutolinti; arba žalių rodyklių gretimoms žemėlapius.


METAR-TAF: